createdAt,value
2019-03-17T00:01:08.979Z,95643.28
2019-03-17T00:02:46.202Z,95653.44
2019-03-17T00:04:31.487Z,95650.86
2019-03-17T00:06:01.683Z,95648.72
2019-03-17T00:07:36.870Z,95652.69
2019-03-17T00:09:12.265Z,95647.13
2019-03-17T00:10:52.739Z,95647.25
2019-03-17T00:12:31.393Z,95645.61
2019-03-17T00:14:05.624Z,95636.26
2019-03-17T00:15:40.675Z,95642.45
2019-03-17T00:17:16.331Z,95634.14
2019-03-17T00:18:54.967Z,95626.75
2019-03-17T00:20:31.958Z,95624.79
2019-03-17T00:22:24.273Z,95625.83
2019-03-17T00:23:59.734Z,95625.70
2019-03-17T00:25:35.123Z,95620.27
2019-03-17T00:27:15.193Z,95620.27
2019-03-17T00:28:50.625Z,95620.11
2019-03-17T00:30:30.240Z,95619.52
2019-03-17T00:32:07.791Z,95620.30
2019-03-17T00:33:48.813Z,95618.62
2019-03-17T00:35:24.882Z,95612.14
2019-03-17T00:37:00.272Z,95605.35
2019-03-17T00:38:37.541Z,95608.50
2019-03-17T00:40:13.768Z,95600.83
2019-03-17T00:41:57.418Z,95600.20
2019-03-17T00:43:33.362Z,95604.91
2019-03-17T00:45:11.344Z,95593.28
2019-03-17T00:46:49.213Z,95599.91
2019-03-17T00:48:25.670Z,95599.47
2019-03-17T00:50:03.661Z,95591.62
2019-03-17T00:51:41.815Z,95591.78
2019-03-17T00:53:20.000Z,95585.12
2019-03-17T00:54:58.214Z,95583.03
2019-03-17T00:56:38.149Z,95582.27
2019-03-17T00:58:14.006Z,95580.47
2019-03-17T00:59:49.949Z,95571.55
2019-03-17T01:01:26.686Z,95574.27
2019-03-17T01:03:01.815Z,95571.71
2019-03-17T01:04:37.945Z,95570.20
2019-03-17T01:06:13.711Z,95568.55
2019-03-17T01:07:49.075Z,95563.56
2019-03-17T01:09:25.913Z,95559.94
2019-03-17T01:11:01.997Z,95565.23
2019-03-17T01:12:38.227Z,95548.91
2019-03-17T01:14:13.573Z,95543.94
2019-03-17T01:15:49.475Z,95542.72
2019-03-17T01:17:25.582Z,95542.27
2019-03-17T01:19:03.101Z,95536.69
2019-03-17T01:20:38.512Z,95532.91
2019-03-17T01:22:13.776Z,95521.73
2019-03-17T01:23:48.952Z,95526.58
2019-03-17T01:25:24.154Z,95512.69
2019-03-17T01:27:00.063Z,95517.52
2019-03-17T01:28:35.654Z,95515.71
2019-03-17T01:30:12.196Z,95509.98
2019-03-17T01:31:47.668Z,95505.00
2019-03-17T01:33:22.986Z,95498.05
2019-03-17T01:35:08.495Z,95498.35
2019-03-17T01:36:40.202Z,95494.58
2019-03-17T01:38:15.723Z,95495.03
2019-03-17T01:39:51.456Z,95488.22
2019-03-17T01:41:29.670Z,95489.59
2019-03-17T01:43:08.343Z,95481.45
2019-03-17T01:44:44.937Z,95478.28
2019-03-17T01:46:22.325Z,95472.67
2019-03-17T01:48:00.621Z,95467.83
2019-03-17T01:49:36.969Z,95461.95
2019-03-17T01:51:13.224Z,95461.65
2019-03-17T01:52:48.601Z,95453.64
2019-03-17T01:54:23.911Z,95446.85
2019-03-17T01:55:59.178Z,95439.45
2019-03-17T01:57:36.175Z,95432.66
2019-03-17T01:59:11.295Z,95431.42
2019-03-17T02:00:46.887Z,95423.45
2019-03-17T02:02:23.794Z,95432.81
2019-03-17T02:04:00.069Z,95423.90
2019-03-17T02:05:35.776Z,95424.05
2019-03-17T02:07:13.337Z,95414.08
2019-03-17T02:08:48.979Z,95403.21
2019-03-17T02:10:24.730Z,95397.77
2019-03-17T02:11:59.836Z,95403.36
2019-03-17T02:13:35.705Z,95394.75
2019-03-17T02:15:12.683Z,95385.55
2019-03-17T02:16:47.916Z,95385.39
2019-03-17T02:18:23.063Z,95386.75
2019-03-17T02:19:58.113Z,95387.96
2019-03-17T02:21:33.903Z,95382.98
2019-03-17T02:23:09.317Z,95376.78
2019-03-17T02:24:44.633Z,95366.67
2019-03-17T02:26:19.948Z,95365.42
2019-03-17T02:27:56.219Z,95360.02
2019-03-17T02:29:31.833Z,95352.02
2019-03-17T02:31:07.272Z,95355.04
2019-03-17T02:32:42.462Z,95355.95
2019-03-17T02:34:17.857Z,95352.78
2019-03-17T02:35:53.227Z,95352.02
2019-03-17T02:37:28.390Z,95352.17
2019-03-17T02:39:07.084Z,95353.69
2019-03-17T02:40:42.205Z,95355.95
2019-03-17T02:42:17.717Z,95348.85
2019-03-17T02:43:53.546Z,95343.72
2019-03-17T02:45:31.096Z,95348.70
2019-03-17T02:47:06.754Z,95348.55
2019-03-17T02:48:42.104Z,95347.80
2019-03-17T02:50:18.340Z,95345.22
2019-03-17T02:51:54.710Z,95335.41
2019-03-17T02:53:30.588Z,95338.44
2019-03-17T02:55:06.687Z,95334.95
2019-03-17T02:56:42.049Z,95335.87
2019-03-17T02:58:17.280Z,95335.56
2019-03-17T02:59:56.128Z,95333.45
2019-03-17T03:01:31.653Z,95334.66
2019-03-17T03:03:06.979Z,95332.99
2019-03-17T03:04:42.106Z,95322.13
2019-03-17T03:06:17.506Z,95315.78
2019-03-17T03:07:53.649Z,95323.18
2019-03-17T03:09:28.984Z,95311.25
2019-03-17T03:11:04.154Z,95304.45
2019-03-17T03:12:39.268Z,95310.80
2019-03-17T03:14:16.685Z,95302.95
2019-03-17T03:15:52.148Z,95302.04
2019-03-17T03:17:30.450Z,95299.17
2019-03-17T03:19:05.948Z,95299.63
2019-03-17T03:20:41.384Z,95287.84
2019-03-17T03:22:18.979Z,95292.53
2019-03-17T03:23:54.673Z,95300.19
2019-03-17T03:25:32.224Z,95287.99
2019-03-17T03:27:09.690Z,95292.98
2019-03-17T03:28:46.504Z,95290.27
2019-03-17T03:30:22.142Z,95275.92
2019-03-17T03:31:57.439Z,95279.55
2019-03-17T03:33:32.983Z,95277.73
2019-03-17T03:35:14.278Z,95280.91
2019-03-17T03:36:52.544Z,95278.63
2019-03-17T03:38:28.403Z,95271.69
2019-03-17T03:40:03.636Z,95267.31
2019-03-17T03:41:38.898Z,95255.84
2019-03-17T03:43:14.096Z,95267.00
2019-03-17T03:44:52.117Z,95255.23
2019-03-17T03:46:27.631Z,95255.69
2019-03-17T03:48:03.943Z,95253.72
2019-03-17T03:49:39.780Z,95258.70
2019-03-17T03:51:15.876Z,95255.53
2019-03-17T03:52:51.340Z,95252.52
2019-03-17T03:54:26.686Z,95246.02
2019-03-17T03:56:01.996Z,95255.23
2019-03-17T03:57:37.433Z,95259.77
2019-03-17T03:59:12.604Z,95261.42
2019-03-17T04:00:47.894Z,95251.00
2019-03-17T04:02:24.904Z,95251.16
2019-03-17T04:03:59.990Z,95251.45
2019-03-17T04:05:35.061Z,95241.79
2019-03-17T04:07:10.229Z,95234.09
2019-03-17T04:08:45.806Z,95236.35
2019-03-17T04:10:21.357Z,95234.23
2019-03-17T04:11:56.653Z,95223.52
2019-03-17T04:13:32.030Z,95225.64
2019-03-17T04:15:08.038Z,95228.05
2019-03-17T04:16:43.452Z,95204.05
2019-03-17T04:18:18.919Z,95204.66
2019-03-17T04:19:54.560Z,95202.69
2019-03-17T04:21:29.914Z,95213.41
2019-03-17T04:23:09.959Z,95217.65
2019-03-17T04:24:44.927Z,95205.26
2019-03-17T04:26:20.847Z,95213.72
2019-03-17T04:27:56.607Z,95217.95
2019-03-17T04:29:31.911Z,95216.44
2019-03-17T04:31:07.258Z,95215.39
2019-03-17T04:32:42.897Z,95216.63
2019-03-17T04:34:18.341Z,95208.47
2019-03-17T04:35:53.889Z,95211.31
2019-03-17T04:37:29.556Z,95210.39
2019-03-17T04:39:05.474Z,95205.00
2019-03-17T04:40:40.541Z,95205.61
2019-03-17T04:42:17.246Z,95210.59
2019-03-17T04:43:52.325Z,95207.27
2019-03-17T04:45:27.463Z,95201.84
2019-03-17T04:47:03.018Z,95201.08
2019-03-17T04:48:38.338Z,95206.82
2019-03-17T04:50:13.682Z,95204.25
2019-03-17T04:51:48.847Z,95204.86
2019-03-17T04:53:24.061Z,95206.36
2019-03-17T04:54:59.474Z,95208.59
2019-03-17T04:56:34.526Z,95213.30
2019-03-17T04:58:09.970Z,95209.69
2019-03-17T04:59:45.101Z,95204.25
2019-03-17T05:01:20.177Z,95212.55
2019-03-17T05:02:55.929Z,95218.59
2019-03-17T05:04:31.064Z,95223.38
2019-03-17T05:06:06.537Z,95230.97
2019-03-17T05:07:42.166Z,95237.01
2019-03-17T05:09:17.294Z,95236.86
2019-03-17T05:10:52.683Z,95232.78
2019-03-17T05:12:28.275Z,95238.08
2019-03-17T05:14:04.671Z,95246.38
2019-03-17T05:15:39.932Z,95228.73
2019-03-17T05:17:14.968Z,95247.63
2019-03-17T05:18:50.342Z,95261.22
2019-03-17T05:20:28.927Z,95268.66
2019-03-17T05:22:04.400Z,95275.30
2019-03-17T05:23:39.676Z,95289.18
2019-03-17T05:25:15.026Z,95289.18
2019-03-17T05:26:55.642Z,95291.17
2019-03-17T05:28:30.767Z,95302.45
2019-03-17T05:30:08.123Z,95307.13
2019-03-17T05:31:43.474Z,95310.62
2019-03-17T05:33:18.526Z,95324.05
2019-03-17T05:34:53.585Z,95324.65
2019-03-17T05:36:28.993Z,95335.80
2019-03-17T05:38:07.304Z,95348.62
2019-03-17T05:39:44.137Z,95364.77
2019-03-17T05:41:19.193Z,95375.47
2019-03-17T05:42:55.160Z,95384.67
2019-03-17T05:44:30.553Z,95403.07
2019-03-17T05:46:06.259Z,95402.74
2019-03-17T05:47:41.411Z,95402.90
2019-03-17T05:49:16.839Z,95417.83
2019-03-17T05:50:52.124Z,95425.22
2019-03-17T05:52:27.766Z,95424.59
2019-03-17T05:54:03.270Z,95419.62
2019-03-17T05:55:38.834Z,95431.52
2019-03-17T05:57:14.137Z,95441.77
2019-03-17T05:58:49.613Z,95452.78
2019-03-17T06:00:25.031Z,95454.89
2019-03-17T06:02:01.655Z,95456.25
2019-03-17T06:03:37.281Z,95468.47
2019-03-17T06:05:12.605Z,95470.27
2019-03-17T06:06:50.040Z,95473.58
2019-03-17T06:08:25.458Z,95474.49
2019-03-17T06:10:00.611Z,95481.56
2019-03-17T06:11:35.915Z,95480.05
2019-03-17T06:13:10.996Z,95490.77
2019-03-17T06:14:48.442Z,95495.73
2019-03-17T06:16:24.081Z,95505.22
2019-03-17T06:18:02.391Z,95509.89
2019-03-17T06:19:37.700Z,95514.59
2019-03-17T06:21:13.059Z,95515.79
2019-03-17T06:22:48.169Z,95529.20
2019-03-17T06:24:24.051Z,95533.59
2019-03-17T06:25:59.359Z,95529.52
2019-03-17T06:27:34.813Z,95522.47
2019-03-17T06:29:10.144Z,95527.27
2019-03-17T06:30:45.945Z,95536.92
2019-03-17T06:32:21.300Z,95541.47
2019-03-17T06:33:59.509Z,95545.06
2019-03-17T06:35:34.627Z,95544.18
2019-03-17T06:37:09.899Z,95556.52
2019-03-17T06:38:48.414Z,95562.42
2019-03-17T06:40:23.934Z,95557.13
2019-03-17T06:41:59.475Z,95566.91
2019-03-17T06:43:34.695Z,95559.55
2019-03-17T06:45:13.058Z,95565.58
2019-03-17T06:46:48.534Z,95575.33
2019-03-17T06:48:23.700Z,95565.83
2019-03-17T06:49:58.863Z,95570.81
2019-03-17T06:51:37.429Z,95571.85
2019-03-17T06:53:14.284Z,95572.61
2019-03-17T06:54:50.274Z,95585.42
2019-03-17T06:56:26.064Z,95595.68
2019-03-17T06:58:01.874Z,95594.01
2019-03-17T06:59:37.466Z,95594.64
2019-03-17T07:01:12.875Z,95599.15
2019-03-17T07:02:50.217Z,95598.27
2019-03-17T07:04:25.768Z,95613.79
2019-03-17T07:06:01.495Z,95607.01
2019-03-17T07:07:43.742Z,95611.23
2019-03-17T07:09:15.133Z,95605.97
2019-03-17T07:10:53.862Z,95615.94
2019-03-17T07:12:31.034Z,95622.85
2019-03-17T07:14:12.112Z,95632.63
2019-03-17T07:15:46.276Z,95629.80
2019-03-17T07:17:21.492Z,95635.34
2019-03-17T07:18:56.593Z,95638.05
2019-03-17T07:20:32.034Z,95636.42
2019-03-17T07:22:08.054Z,95644.72
2019-03-17T07:23:43.275Z,95643.80
2019-03-17T07:25:18.381Z,95645.48
2019-03-17T07:26:57.854Z,95646.67
2019-03-17T07:28:33.332Z,95649.51
2019-03-17T07:30:14.474Z,95647.72
2019-03-17T07:31:49.830Z,95645.00
2019-03-17T07:33:27.869Z,95650.42
2019-03-17T07:35:03.447Z,95650.14
2019-03-17T07:36:39.195Z,95647.43
2019-03-17T07:38:15.356Z,95645.91
2019-03-17T07:39:54.317Z,95659.77
2019-03-17T07:41:36.275Z,95642.45
2019-03-17T07:43:11.541Z,95667.42
2019-03-17T07:44:48.256Z,95664.16
2019-03-17T07:46:23.940Z,95667.31
2019-03-17T07:47:59.434Z,95668.34
2019-03-17T07:49:40.875Z,95637.77
2019-03-17T07:51:16.085Z,95662.48
2019-03-17T07:52:52.265Z,95678.04
2019-03-17T07:54:27.997Z,95668.95
2019-03-17T07:56:16.971Z,95676.05
2019-03-17T07:58:00.995Z,95680.75
2019-03-17T07:59:40.934Z,95684.95
2019-03-17T08:01:16.644Z,95682.39
2019-03-17T08:02:52.967Z,95682.55
2019-03-17T08:04:42.422Z,95689.49
2019-03-17T08:06:11.240Z,95682.19
2019-03-17T08:07:46.561Z,95679.95
2019-03-17T08:09:25.377Z,95678.64
2019-03-17T08:11:00.605Z,95686.34
2019-03-17T08:12:36.132Z,95686.18
2019-03-17T08:14:14.364Z,95685.10
2019-03-17T08:15:58.306Z,95693.84
2019-03-17T08:17:33.831Z,95684.78
2019-03-17T08:19:11.193Z,95693.53
2019-03-17T08:20:48.437Z,95698.35
2019-03-17T08:22:26.601Z,95694.28
2019-03-17T08:24:08.067Z,95705.14
2019-03-17T08:25:48.324Z,95713.59
2019-03-17T08:27:23.529Z,95711.52
2019-03-17T08:28:59.348Z,95705.13
2019-03-17T08:30:35.818Z,95707.52
2019-03-17T08:32:17.314Z,95722.00
2019-03-17T08:33:52.511Z,95720.40
2019-03-17T08:35:28.376Z,95714.84
2019-03-17T08:37:07.371Z,95707.64
2019-03-17T08:38:48.807Z,95739.58
2019-03-17T08:40:30.202Z,95737.80
2019-03-17T08:42:09.136Z,95736.77
2019-03-17T08:43:53.850Z,95733.94
2019-03-17T08:45:20.996Z,95742.08
2019-03-17T08:46:59.512Z,95741.30
2019-03-17T08:48:37.048Z,95730.63
2019-03-17T08:50:14.701Z,95715.69
2019-03-17T08:51:51.440Z,95721.12
2019-03-17T08:53:28.155Z,95707.98
2019-03-17T08:55:05.454Z,95712.97
2019-03-17T08:56:43.154Z,95706.91
2019-03-17T08:58:18.648Z,95719.09
2019-03-17T08:59:55.555Z,95711.30
2019-03-17T09:01:32.978Z,95703.25
2019-03-17T09:03:12.608Z,95701.70
2019-03-17T09:04:48.527Z,95706.31
2019-03-17T09:06:24.287Z,95696.81
2019-03-17T09:08:09.426Z,95684.13
2019-03-17T09:09:50.740Z,95688.34
2019-03-17T09:11:25.862Z,95677.28
2019-03-17T09:13:05.375Z,95687.37
2019-03-17T09:14:47.420Z,95679.30
2019-03-17T09:16:22.872Z,95689.98
2019-03-17T09:18:01.194Z,95676.09
2019-03-17T09:19:38.696Z,95689.01
2019-03-17T09:21:18.781Z,95690.92
2019-03-17T09:23:02.189Z,95687.17
2019-03-17T09:24:40.736Z,95690.75
2019-03-17T09:26:24.951Z,95687.29
2019-03-17T09:28:05.177Z,95663.20
2019-03-17T09:29:48.145Z,95682.44
2019-03-17T09:31:24.610Z,95688.46
2019-03-17T09:33:07.146Z,95682.23
2019-03-17T09:34:46.489Z,95676.28
2019-03-17T09:36:25.001Z,95680.83
2019-03-17T09:38:10.995Z,95676.39
2019-03-17T09:39:46.809Z,95687.77
2019-03-17T09:41:22.321Z,95697.60
2019-03-17T09:42:58.815Z,95707.40
2019-03-17T09:44:35.592Z,95703.92
2019-03-17T09:46:20.262Z,95698.96
2019-03-17T09:47:59.926Z,95694.44
2019-03-17T09:49:41.916Z,95690.25
2019-03-17T09:51:18.647Z,95696.00
2019-03-17T09:52:56.314Z,95698.80
2019-03-17T09:54:35.146Z,95700.52
2019-03-17T09:56:20.974Z,95699.97
2019-03-17T09:58:01.441Z,95694.56
2019-03-17T09:59:38.777Z,95695.63
2019-03-17T10:01:14.567Z,95697.05
2019-03-17T10:02:55.158Z,95692.33
2019-03-17T10:04:30.719Z,95700.41
2019-03-17T10:06:05.947Z,95701.23
2019-03-17T10:07:41.185Z,95700.14
2019-03-17T10:09:25.908Z,95699.44
2019-03-17T10:11:10.871Z,95694.16
2019-03-17T10:12:56.638Z,95697.84
2019-03-17T10:14:34.490Z,95706.42
2019-03-17T10:16:14.211Z,95711.86
2019-03-17T10:17:49.828Z,95718.05
2019-03-17T10:19:29.755Z,95713.55
2019-03-17T10:21:10.383Z,95703.78
2019-03-17T10:22:45.766Z,95697.20
2019-03-17T10:24:33.361Z,95705.58
2019-03-17T10:26:24.248Z,95713.80
2019-03-17T10:28:04.247Z,95711.92
2019-03-17T10:29:48.464Z,95708.22
2019-03-17T10:31:26.104Z,95707.25
2019-03-17T10:33:04.369Z,95709.19
2019-03-17T10:34:39.915Z,95698.63
2019-03-17T10:36:17.936Z,95705.72
2019-03-17T10:37:57.066Z,95704.98
2019-03-17T10:39:35.176Z,95695.63
2019-03-17T10:41:11.649Z,95696.45
2019-03-17T10:42:48.377Z,95691.78
2019-03-17T10:44:25.319Z,95684.59
2019-03-17T10:46:00.800Z,95682.75
2019-03-17T10:47:38.933Z,95686.27
2019-03-17T10:49:14.107Z,95671.14
2019-03-17T10:50:55.211Z,95676.33
2019-03-17T10:52:36.011Z,95693.54
2019-03-17T10:54:14.832Z,95679.36
2019-03-17T10:56:07.176Z,95666.51
2019-03-17T10:57:43.526Z,95669.45
2019-03-17T10:59:27.809Z,95678.56
2019-03-17T11:01:08.339Z,95675.89
2019-03-17T11:02:46.103Z,95672.36
2019-03-17T11:04:24.958Z,95674.89
2019-03-17T11:06:01.385Z,95663.35
2019-03-17T11:07:43.411Z,95669.45
2019-03-17T11:09:26.595Z,95655.49
2019-03-17T11:11:12.034Z,95669.30
2019-03-17T11:12:48.234Z,95671.53
2019-03-17T11:14:23.822Z,95684.14
2019-03-17T11:16:01.784Z,95672.17
2019-03-17T11:17:38.082Z,95662.27
2019-03-17T11:19:17.062Z,95656.20
2019-03-17T11:20:54.466Z,95652.22
2019-03-17T11:22:29.614Z,95653.92
2019-03-17T11:24:05.287Z,95658.97
2019-03-17T11:25:40.905Z,95668.03
2019-03-17T11:27:16.789Z,95675.97
2019-03-17T11:28:56.326Z,95667.66
2019-03-17T11:30:34.784Z,95643.63
2019-03-17T11:32:24.452Z,95653.20
2019-03-17T11:34:00.731Z,95634.32
2019-03-17T11:35:36.020Z,95642.05
2019-03-17T11:37:15.295Z,95636.83
2019-03-17T11:38:52.919Z,95618.89
2019-03-17T11:40:28.304Z,95619.20
2019-03-17T11:42:08.871Z,95610.92
2019-03-17T11:43:46.007Z,95613.23
2019-03-17T11:45:29.811Z,95602.45
2019-03-17T11:47:07.987Z,95597.91
2019-03-17T11:48:43.252Z,95587.09
2019-03-17T11:50:28.011Z,95593.45
2019-03-17T11:52:05.861Z,95581.83
2019-03-17T11:53:53.736Z,95569.57
2019-03-17T11:55:32.154Z,95570.96
2019-03-17T11:57:07.542Z,95566.28
2019-03-17T11:58:44.423Z,95571.13
2019-03-17T12:00:25.888Z,95579.73
2019-03-17T12:02:05.146Z,95588.81
2019-03-17T12:03:43.173Z,95575.36
2019-03-17T12:05:27.431Z,95569.61
2019-03-17T12:07:02.953Z,95564.77
2019-03-17T12:08:39.114Z,95573.36
2019-03-17T12:10:18.585Z,95579.87
2019-03-17T12:11:55.795Z,95589.26
2019-03-17T12:13:33.242Z,95577.78
2019-03-17T12:15:15.510Z,95562.52
2019-03-17T12:16:53.047Z,95567.80
2019-03-17T12:18:34.104Z,95566.28
2019-03-17T12:20:17.474Z,95556.44
2019-03-17T12:22:08.436Z,95549.63
2019-03-17T12:23:34.186Z,95546.95
2019-03-17T12:25:12.382Z,95550.41
2019-03-17T12:26:49.196Z,95547.08
2019-03-17T12:28:27.488Z,95551.47
2019-03-17T12:30:08.754Z,95567.79
2019-03-17T12:31:48.832Z,95541.80
2019-03-17T12:33:25.428Z,95546.91
2019-03-17T12:35:00.658Z,95554.45
2019-03-17T12:36:38.186Z,95565.50
2019-03-17T12:38:14.121Z,95570.95
2019-03-17T12:40:02.525Z,95568.70
2019-03-17T12:41:33.368Z,95569.00
2019-03-17T12:43:10.725Z,95559.33
2019-03-17T12:44:46.008Z,95550.59
2019-03-17T12:46:24.522Z,95550.59
2019-03-17T12:48:00.232Z,95553.91
2019-03-17T12:49:38.717Z,95556.94
2019-03-17T12:51:15.398Z,95555.27
2019-03-17T12:52:51.087Z,95546.02
2019-03-17T12:54:45.523Z,95553.88
2019-03-17T12:56:27.983Z,95536.59
2019-03-17T12:58:03.119Z,95551.79
2019-03-17T12:59:38.989Z,95550.13
2019-03-17T13:01:14.146Z,95541.25
2019-03-17T13:02:52.953Z,95541.01
2019-03-17T13:04:28.526Z,95552.65
2019-03-17T13:06:03.714Z,95541.91
2019-03-17T13:07:39.191Z,95550.08
2019-03-17T13:09:24.422Z,95544.81
2019-03-17T13:11:04.991Z,95545.23
2019-03-17T13:12:42.657Z,95545.24
2019-03-17T13:14:20.593Z,95548.42
2019-03-17T13:15:59.350Z,95547.98
2019-03-17T13:17:38.545Z,95547.68
2019-03-17T13:19:13.762Z,95557.83
2019-03-17T13:20:51.679Z,95564.17
2019-03-17T13:22:30.939Z,95584.72
2019-03-17T13:24:08.960Z,95596.72
2019-03-17T13:25:50.432Z,95624.22
2019-03-17T13:27:34.325Z,95637.69
2019-03-17T13:29:06.897Z,95628.94
2019-03-17T13:30:51.462Z,95656.77
2019-03-17T13:32:28.693Z,95665.86
2019-03-17T13:34:06.690Z,95663.31
2019-03-17T13:35:42.161Z,95667.47
2019-03-17T13:37:17.612Z,95663.08
2019-03-17T13:38:59.111Z,95661.52
2019-03-17T13:40:36.940Z,95659.13
2019-03-17T13:42:15.542Z,95651.69
2019-03-17T13:43:55.216Z,95646.21
2019-03-17T13:45:33.684Z,95641.89
2019-03-17T13:47:10.849Z,95645.71
2019-03-17T13:48:54.531Z,95657.62
2019-03-17T13:50:30.046Z,95651.57
2019-03-17T13:52:06.715Z,95637.87
2019-03-17T13:53:43.632Z,95634.19
2019-03-17T13:55:22.241Z,95630.73
2019-03-17T13:57:00.091Z,95637.35
2019-03-17T13:58:35.326Z,95631.16
2019-03-17T14:00:15.301Z,95617.58
2019-03-17T14:01:57.554Z,95621.09
2019-03-17T14:03:33.172Z,95647.11
2019-03-17T14:05:17.255Z,95629.35
2019-03-17T14:06:51.669Z,95641.58
2019-03-17T14:08:28.297Z,95644.06
2019-03-17T14:10:18.648Z,95633.80
2019-03-17T14:12:03.279Z,95637.41
2019-03-17T14:13:45.626Z,95633.94
2019-03-17T14:15:36.901Z,95643.45
2019-03-17T14:17:16.528Z,95647.86
2019-03-17T14:18:53.486Z,95646.02
2019-03-17T14:20:39.183Z,95652.67
2019-03-17T14:22:16.676Z,95660.17
2019-03-17T14:23:55.546Z,95665.14
2019-03-17T14:25:31.452Z,95675.93
2019-03-17T14:27:13.417Z,95682.66
2019-03-17T14:28:52.916Z,95686.42
2019-03-17T14:30:33.278Z,95711.14
2019-03-17T14:32:09.428Z,95695.48
2019-03-17T14:33:56.129Z,95701.31
2019-03-17T14:35:36.134Z,95710.37
2019-03-17T14:37:15.668Z,95720.04
2019-03-17T14:38:51.599Z,95713.44
2019-03-17T14:40:29.365Z,95724.61
2019-03-17T14:42:08.983Z,95724.02
2019-03-17T14:43:54.099Z,95733.45
2019-03-17T14:45:29.538Z,95723.37
2019-03-17T14:47:06.359Z,95735.63
2019-03-17T14:48:49.346Z,95722.23
2019-03-17T14:50:25.647Z,95731.61
2019-03-17T14:52:04.926Z,95720.84
2019-03-17T14:53:51.018Z,95719.45
2019-03-17T14:55:27.411Z,95716.66
2019-03-17T14:57:08.868Z,95714.14
2019-03-17T14:58:51.427Z,95725.45
2019-03-17T15:00:31.125Z,95710.10
2019-03-17T15:02:13.222Z,95707.83
2019-03-17T15:03:54.654Z,95701.61
2019-03-17T15:05:29.936Z,95706.91
2019-03-17T15:07:08.357Z,95683.92
2019-03-17T15:08:44.057Z,95685.06
2019-03-17T15:10:19.957Z,95689.64
2019-03-17T15:11:57.753Z,95701.20
2019-03-17T15:13:36.055Z,95679.87
2019-03-17T15:15:14.544Z,95690.57
2019-03-17T15:16:51.447Z,95700.95
2019-03-17T15:18:27.184Z,95694.16
2019-03-17T15:20:05.177Z,95694.87
2019-03-17T15:21:43.998Z,95706.93
2019-03-17T15:23:22.372Z,95721.03
2019-03-17T15:24:57.903Z,95722.66
2019-03-17T15:26:44.758Z,95714.50
2019-03-17T15:28:22.695Z,95720.52
2019-03-17T15:30:07.224Z,95715.66
2019-03-17T15:31:50.911Z,95705.39
2019-03-17T15:33:32.050Z,95718.37
2019-03-17T15:35:10.264Z,95725.48
2019-03-17T15:36:45.483Z,95729.08
2019-03-17T15:38:22.294Z,95732.14
2019-03-17T15:40:00.431Z,95736.11
2019-03-17T15:41:45.213Z,95734.98
2019-03-17T15:43:22.324Z,95740.25
2019-03-17T15:45:03.017Z,95744.77
2019-03-17T15:46:40.488Z,95739.76
2019-03-17T15:48:26.443Z,95745.34
2019-03-17T15:50:05.176Z,95744.15
2019-03-17T15:51:54.101Z,95744.00
2019-03-17T15:53:30.111Z,95747.47
2019-03-17T15:55:09.499Z,95748.33
2019-03-17T15:56:47.416Z,95747.78
2019-03-17T15:58:25.537Z,95748.45
2019-03-17T16:00:08.537Z,95756.08
2019-03-17T16:01:54.494Z,95759.55
2019-03-17T16:03:35.185Z,95760.10
2019-03-17T16:05:14.636Z,95769.14
2019-03-17T16:06:50.878Z,95777.82
2019-03-17T16:08:26.309Z,95792.09
2019-03-17T16:10:01.860Z,95815.07
2019-03-17T16:11:38.804Z,95842.84
2019-03-17T16:13:13.970Z,95860.09
2019-03-17T16:14:51.361Z,95871.27
2019-03-17T16:16:40.206Z,95899.47
2019-03-17T16:18:19.938Z,95895.02
2019-03-17T16:19:56.306Z,95914.25
2019-03-17T16:21:31.519Z,95919.66
2019-03-17T16:23:08.271Z,95937.14
2019-03-17T16:24:53.196Z,95936.14
2019-03-17T16:26:53.380Z,95939.02
2019-03-17T16:28:34.050Z,95940.78
2019-03-17T16:30:18.081Z,95947.38
2019-03-17T16:33:50.465Z,95954.22
2019-03-17T16:35:28.772Z,95951.94
2019-03-17T16:37:18.970Z,95956.41
2019-03-17T16:38:53.771Z,95957.84
2019-03-17T16:40:34.412Z,95961.33
2019-03-17T16:42:11.400Z,95961.06
2019-03-17T16:43:47.240Z,95960.30
2019-03-17T16:45:22.558Z,95968.84
2019-03-17T16:46:58.154Z,95967.67
2019-03-17T16:48:35.237Z,95971.97
2019-03-17T16:50:13.584Z,95973.50
2019-03-17T16:51:52.139Z,95982.80
2019-03-17T16:53:27.371Z,95983.70
2019-03-17T16:55:02.554Z,95991.41
2019-03-17T16:56:42.245Z,95994.88
2019-03-17T16:58:18.129Z,95992.92
2019-03-17T16:59:56.864Z,95991.81
2019-03-17T17:01:31.808Z,95993.77
2019-03-17T17:03:15.730Z,95991.64
2019-03-17T17:04:52.339Z,95992.66
2019-03-17T17:06:27.444Z,96005.52
2019-03-17T17:08:10.794Z,96008.22
2019-03-17T17:09:50.060Z,96004.92
2019-03-17T17:11:25.845Z,95998.65
2019-03-17T17:13:01.813Z,96001.18
2019-03-17T17:14:38.179Z,96008.36
2019-03-17T17:16:13.936Z,96007.00
2019-03-17T17:17:51.724Z,96010.91
2019-03-17T17:19:29.391Z,96013.34
2019-03-17T17:21:09.547Z,96015.17
2019-03-17T17:22:47.611Z,96021.52
2019-03-17T17:24:27.406Z,96026.92
2019-03-17T17:26:05.981Z,96025.22
2019-03-17T17:27:41.370Z,96028.45
2019-03-17T17:29:16.689Z,96025.67
2019-03-17T17:30:54.676Z,96023.27
2019-03-17T17:32:30.250Z,96016.10
2019-03-17T17:34:05.591Z,96025.28
2019-03-17T17:35:40.997Z,96030.25
2019-03-17T17:37:16.561Z,96032.25
2019-03-17T17:38:52.510Z,96038.75
2019-03-17T17:40:30.421Z,96041.28
2019-03-17T17:42:10.071Z,96041.16
2019-03-17T17:43:44.229Z,96038.34
2019-03-17T17:45:19.722Z,96045.69
2019-03-17T17:47:00.822Z,96042.73
2019-03-17T17:48:40.773Z,96045.02
2019-03-17T17:50:16.994Z,96047.02
2019-03-17T17:51:54.244Z,96050.09
2019-03-17T17:53:35.659Z,96054.96
2019-03-17T17:55:19.632Z,96066.35
2019-03-17T17:56:58.722Z,96069.28
2019-03-17T17:58:36.647Z,96075.63
2019-03-17T18:00:17.369Z,96076.30
2019-03-17T18:02:04.951Z,96081.84
2019-03-17T18:03:51.195Z,96083.20
2019-03-17T18:05:21.970Z,96090.97
2019-03-17T18:06:59.996Z,96100.42
2019-03-17T18:08:36.159Z,96102.59
2019-03-17T18:10:21.195Z,96108.98
2019-03-17T18:12:20.802Z,96103.81
2019-03-17T18:14:02.143Z,96109.27
2019-03-17T18:15:44.865Z,96118.80
2019-03-17T18:17:26.322Z,96112.86
2019-03-17T18:19:08.263Z,96117.19
2019-03-17T18:20:47.438Z,96122.95
2019-03-17T18:22:25.776Z,96127.66
2019-03-17T18:24:04.377Z,96120.91
2019-03-17T18:25:40.577Z,96127.30
2019-03-17T18:27:19.182Z,96126.89
2019-03-17T18:29:09.372Z,96124.19
2019-03-17T18:30:50.663Z,96129.77
2019-03-17T18:32:32.564Z,96133.81
2019-03-17T18:34:09.663Z,96135.17
2019-03-17T18:35:45.357Z,96146.66
2019-03-17T18:37:21.450Z,96147.19
2019-03-17T18:38:56.697Z,96147.73
2019-03-17T18:40:37.365Z,96153.99
2019-03-17T18:42:16.735Z,96149.31
2019-03-17T18:43:52.580Z,96150.61
2019-03-17T18:45:32.892Z,96154.84
2019-03-17T18:47:09.979Z,96158.48
2019-03-17T18:48:52.742Z,96152.13
2019-03-17T18:50:36.576Z,96157.89
2019-03-17T18:52:13.996Z,96156.77
2019-03-17T18:53:50.771Z,96170.19
2019-03-17T18:55:35.087Z,96162.09
2019-03-17T18:57:15.574Z,96167.09
2019-03-17T18:58:52.785Z,96169.78
2019-03-17T19:00:35.188Z,96169.73
2019-03-17T19:02:17.917Z,96174.14
2019-03-17T19:04:04.766Z,96170.05
2019-03-17T19:05:46.402Z,96174.02
2019-03-17T19:07:51.638Z,96173.25
2019-03-17T19:09:26.837Z,96162.45
2019-03-17T19:11:06.572Z,96192.64
2019-03-17T19:12:45.803Z,96200.97